sensor_id;sensor_type;location;lat;lon;timestamp;pressure;altitude;pressure_sealevel;temperature;humidity
2036;BME280;23642;42.658;23.350;2023-02-13T00:05:04;46921.94;;;-146.31;100.00
2036;BME280;23642;42.658;23.350;2023-02-13T00:11:17;46921.94;;;-146.31;100.00
2036;BME280;23642;42.658;23.350;2023-02-13T00:14:19;46942.56;;;-146.31;100.00
2036;BME280;23642;42.658;23.350;2023-02-13T00:16:57;46911.66;;;-146.31;100.00
2036;BME280;23642;42.658;23.350;2023-02-13T00:19:46;46878.69;;;-146.31;100.00
2036;BME280;23642;42.658;23.350;2023-02-13T00:47:21;47031.13;;;-146.31;99.54
2036;BME280;23642;42.658;23.350;2023-02-13T00:53:02;47014.66;;;-146.31;99.74
2036;BME280;23642;42.658;23.350;2023-02-13T00:56:03;47004.34;;;-146.31;99.86
2036;BME280;23642;42.658;23.350;2023-02-13T00:59:23;46973.44;;;-146.31;100.00
2036;BME280;23642;42.658;23.350;2023-02-13T01:13:39;46981.69;;;-146.31;99.74
2036;BME280;23642;42.658;23.350;2023-02-13T01:16:34;46977.56;;;-146.31;99.76
2036;BME280;23642;42.658;23.350;2023-02-13T01:19:29;47004.34;;;-146.31;99.62
2036;BME280;23642;42.658;23.350;2023-02-13T01:25:40;47057.94;;;-146.31;99.56
2036;BME280;23642;42.658;23.350;2023-02-13T01:32:34;47272.22;;;-146.31;98.89
2036;BME280;23642;42.658;23.350;2023-02-13T01:35:57;47352.56;;;-146.31;98.53
2036;BME280;23642;42.658;23.350;2023-02-13T01:39:06;47434.97;;;-146.31;97.99
2036;BME280;23642;42.658;23.350;2023-02-13T01:45:22;47614.25;;;-146.31;97.49
2036;BME280;23642;42.658;23.350;2023-02-13T01:48:29;47727.59;;;-146.31;97.43
2036;BME280;23642;42.658;23.350;2023-02-13T01:55:08;47822.38;;;-146.31;97.07
2036;BME280;23642;42.658;23.350;2023-02-13T01:58:35;47867.72;;;-146.31;96.94
2036;BME280;23642;42.658;23.350;2023-02-13T02:01:55;47966.66;;;-146.31;96.36
2036;BME280;23642;42.658;23.350;2023-02-13T02:16:12;48213.97;;;-146.31;96.12
2036;BME280;23642;42.658;23.350;2023-02-13T02:19:25;48189.22;;;-146.31;96.07
2036;BME280;23642;42.658;23.350;2023-02-13T02:22:46;48259.31;;;-146.31;95.96
2036;BME280;23642;42.658;23.350;2023-02-13T02:26:01;48238.69;;;-146.31;96.19
2036;BME280;23642;42.658;23.350;2023-02-13T02:33:00;48185.13;;;-146.31;96.39
2036;BME280;23642;42.658;23.350;2023-02-13T02:36:16;48209.84;;;-146.31;96.28
2036;BME280;23642;42.658;23.350;2023-02-13T02:41:25;48178.94;;;-146.31;96.06
2036;BME280;23642;42.658;23.350;2023-02-13T02:43:59;48213.97;;;-146.31;96.11
2036;BME280;23642;42.658;23.350;2023-02-13T02:47:00;48236.63;;;-146.31;96.42
2036;BME280;23642;42.658;23.350;2023-02-13T02:50:36;48191.28;;;-146.31;96.23
2036;BME280;23642;42.658;23.350;2023-02-13T02:57:06;48176.88;;;-146.31;96.45
2036;BME280;23642;42.658;23.350;2023-02-13T03:00:07;48098.56;;;-146.31;96.66
2036;BME280;23642;42.658;23.350;2023-02-13T03:06:00;47962.53;;;-146.31;97.26
2036;BME280;23642;42.658;23.350;2023-02-13T03:12:38;48040.84;;;-146.31;96.99
2036;BME280;23642;42.658;23.350;2023-02-13T03:19:19;48119.16;;;-146.31;96.54
2036;BME280;23642;42.658;23.350;2023-02-13T03:46:32;48500.47;;;-146.31;95.13
2036;BME280;23642;42.658;23.350;2023-02-13T04:13:16;48539.63;;;-146.31;95.44
2036;BME280;23642;42.658;23.350;2023-02-13T04:19:22;48640.63;;;-146.31;94.97
2036;BME280;23642;42.658;23.350;2023-02-13T04:22:13;48638.56;;;-146.31;94.69
2036;BME280;23642;42.658;23.350;2023-02-13T04:27:52;48671.53;;;-146.31;94.50
2036;BME280;23642;42.658;23.350;2023-02-13T04:30:55;48665.38;;;-146.31;94.21
2036;BME280;23642;42.658;23.350;2023-02-13T04:33:43;48688.03;;;-146.31;94.56
2036;BME280;23642;42.658;23.350;2023-02-13T04:36:51;48749.88;;;-146.31;94.16
2036;BME280;23642;42.658;23.350;2023-02-13T04:39:48;48737.50;;;-146.31;94.22
2036;BME280;23642;42.658;23.350;2023-02-13T04:42:23;48737.50;;;-146.31;94.21
2036;BME280;23642;42.658;23.350;2023-02-13T04:44:56;48799.34;;;-146.31;94.06
2036;BME280;23642;42.658;23.350;2023-02-13T04:47:49;48861.19;;;-146.31;93.73
2036;BME280;23642;42.658;23.350;2023-02-13T04:50:21;48844.69;;;-146.31;93.66
2036;BME280;23642;42.658;23.350;2023-02-13T04:53:17;48877.69;;;-146.31;93.86
2036;BME280;23642;42.658;23.350;2023-02-13T04:56:39;48859.13;;;-146.31;93.69
2036;BME280;23642;42.658;23.350;2023-02-13T05:01:57;49009.63;;;-146.31;92.51
2036;BME280;23642;42.658;23.350;2023-02-13T05:08:32;49191.03;;;-146.31;91.61
2036;BME280;23642;42.658;23.350;2023-02-13T05:11:42;49294.13;;;-146.31;91.14
2036;BME280;23642;42.658;23.350;2023-02-13T05:15:06;49236.41;;;-146.31;91.99
2036;BME280;23642;42.658;23.350;2023-02-13T05:18:03;49368.34;;;-146.31;91.12
2036;BME280;23642;42.658;23.350;2023-02-13T05:21:27;49343.59;;;-146.31;91.81
2036;BME280;23642;42.658;23.350;2023-02-13T05:31:24;49345.66;;;-146.31;91.60
2036;BME280;23642;42.658;23.350;2023-02-13T05:35:43;49353.91;;;-146.31;91.82
2036;BME280;23642;42.658;23.350;2023-02-13T05:37:59;49312.69;;;-146.31;92.24
2036;BME280;23642;42.658;23.350;2023-02-13T05:44:10;49327.09;;;-146.31;92.53
2036;BME280;23642;42.658;23.350;2023-02-13T05:50:07;49232.28;;;-146.31;92.89
2036;BME280;23642;42.658;23.350;2023-02-13T05:59:33;49263.19;;;-146.31;92.79
2036;BME280;23642;42.658;23.350;2023-02-13T06:02:43;49246.69;;;-146.31;92.59
2036;BME280;23642;42.658;23.350;2023-02-13T06:09:06;49281.75;;;-146.31;92.39
2036;BME280;23642;42.658;23.350;2023-02-13T06:11:51;49322.97;;;-146.31;92.12
2036;BME280;23642;42.658;23.350;2023-02-13T06:24:17;49485.88;;;-146.31;90.93
2036;BME280;23642;42.658;23.350;2023-02-13T06:31:01;49677.63;;;-146.31;90.15
2036;BME280;23642;42.658;23.350;2023-02-13T06:36:40;49725.03;;;-146.31;89.77
2036;BME280;23642;42.658;23.350;2023-02-13T06:46:09;49766.28;;;-146.31;89.99
2036;BME280;23642;42.658;23.350;2023-02-13T06:48:56;49807.53;;;-146.31;89.37
2036;BME280;23642;42.658;23.350;2023-02-13T06:51:57;49842.56;;;-146.31;89.69
2036;BME280;23642;42.658;23.350;2023-02-13T06:55:02;49945.69;;;-146.31;89.24
2036;BME280;23642;42.658;23.350;2023-02-13T06:58:15;50019.91;;;-146.31;88.22
2036;BME280;23642;42.658;23.350;2023-02-13T07:01:08;50073.53;;;-146.31;88.29
2036;BME280;23642;42.658;23.350;2023-02-13T07:03:36;50110.66;;;-146.31;88.08
2036;BME280;23642;42.658;23.350;2023-02-13T07:06:03;50139.53;;;-146.31;88.02
2036;BME280;23642;42.658;23.350;2023-02-13T07:08:42;50232.31;;;-146.31;86.99
2036;BME280;23642;42.658;23.350;2023-02-13T07:11:54;50442.69;;;-146.31;84.85
2036;BME280;23642;42.658;23.350;2023-02-13T07:14:38;50543.75;;;-146.31;85.20
2036;BME280;23642;42.658;23.350;2023-02-13T07:23:39;50861.38;;;-146.31;83.87
2036;BME280;23642;42.658;23.350;2023-02-13T07:26:26;50981.00;;;-146.31;82.78
2036;BME280;23642;42.658;23.350;2023-02-13T07:29:15;51086.22;;;-146.31;82.68
2036;BME280;23642;42.658;23.350;2023-02-13T07:32:02;51084.16;;;-146.31;82.79
2036;BME280;23642;42.658;23.350;2023-02-13T07:44:54;51414.22;;;-146.31;81.15
2036;BME280;23642;42.658;23.350;2023-02-13T07:47:57;51455.47;;;-146.31;80.77
2036;BME280;23642;42.658;23.350;2023-02-13T08:00:13;51546.25;;;-146.31;80.98
2036;BME280;23642;42.658;23.350;2023-02-13T08:10:45;51628.75;;;-146.31;80.04
2036;BME280;23642;42.658;23.350;2023-02-13T08:24:05;51733.97;;;-146.31;78.62
2036;BME280;23642;42.658;23.350;2023-02-13T08:27:10;51849.53;;;-146.31;78.73
2036;BME280;23642;42.658;23.350;2023-02-13T08:29:47;51787.63;;;-146.31;79.67
2036;BME280;23642;42.658;23.350;2023-02-13T08:35:46;51802.06;;;-146.31;79.99
2036;BME280;23642;42.658;23.350;2023-02-13T08:38:29;51814.44;;;-146.31;80.21
2036;BME280;23642;42.658;23.350;2023-02-13T08:41:05;51793.81;;;-146.31;79.98
2036;BME280;23642;42.658;23.350;2023-02-13T08:43:42;51822.69;;;-146.31;78.29
2036;BME280;23642;42.658;23.350;2023-02-13T08:46:23;51913.47;;;-146.31;79.28
2036;BME280;23642;42.658;23.350;2023-02-13T08:49:30;51839.22;;;-146.31;79.88
2036;BME280;23642;42.658;23.350;2023-02-13T08:54:59;51909.34;;;-146.31;78.55
2036;BME280;23642;42.658;23.350;2023-02-13T08:57:30;51952.69;;;-146.31;78.92
2036;BME280;23642;42.658;23.350;2023-02-13T09:00:30;51901.09;;;-146.31;78.26
2036;BME280;23642;42.658;23.350;2023-02-13T09:03:35;51998.09;;;-146.31;78.91
2036;BME280;23642;42.658;23.350;2023-02-13T09:06:06;51954.75;;;-146.31;79.41
2036;BME280;23642;42.658;23.350;2023-02-13T09:12:08;52016.66;;;-146.31;77.82
2036;BME280;23642;42.658;23.350;2023-02-13T09:14:55;52090.94;;;-146.31;77.06
2036;BME280;23642;42.658;23.350;2023-02-13T09:17:48;52084.75;;;-146.31;77.76
2036;BME280;23642;42.658;23.350;2023-02-13T09:20:41;52177.59;;;-146.31;76.92
2036;BME280;23642;42.658;23.350;2023-02-13T09:23:22;52146.66;;;-146.31;76.73
2036;BME280;23642;42.658;23.350;2023-02-13T09:26:16;52225.06;;;-146.31;76.35
2036;BME280;23642;42.658;23.350;2023-02-13T09:28:46;52291.09;;;-146.31;74.54
2036;BME280;23642;42.658;23.350;2023-02-13T09:31:16;52326.16;;;-146.31;76.40
2036;BME280;23642;42.658;23.350;2023-02-13T09:34:00;52359.19;;;-146.31;76.29
2036;BME280;23642;42.658;23.350;2023-02-13T09:36:52;52594.44;;;-146.31;76.54
2036;BME280;23642;42.658;23.350;2023-02-13T09:39:59;52598.56;;;-146.31;75.25
2036;BME280;23642;42.658;23.350;2023-02-13T09:45:19;52619.19;;;-146.31;74.36
2036;BME280;23642;42.658;23.350;2023-02-13T09:50:15;52542.84;;;-146.31;74.53
2036;BME280;23642;42.658;23.350;2023-02-13T09:53:16;52489.19;;;-146.31;73.95
2036;BME280;23642;42.658;23.350;2023-02-13T09:56:10;52478.88;;;-146.31;74.59
2036;BME280;23642;42.658;23.350;2023-02-13T09:59:17;52524.28;;;-146.31;75.55
2036;BME280;23642;42.658;23.350;2023-02-13T10:08:46;52371.56;;;-146.31;76.96
2036;BME280;23642;42.658;23.350;2023-02-13T10:12:06;52359.19;;;-146.31;77.17
2036;BME280;23642;42.658;23.350;2023-02-13T10:15:01;52309.66;;;-146.31;78.00
2036;BME280;23642;42.658;23.350;2023-02-13T10:24:09;52284.91;;;-146.31;79.34
2036;BME280;23642;42.658;23.350;2023-02-13T10:29:45;52214.75;;;-146.31;77.24
2036;BME280;23642;42.658;23.350;2023-02-13T10:32:48;52276.66;;;-146.31;76.26
2036;BME280;23642;42.658;23.350;2023-02-13T10:35:44;52307.59;;;-146.31;76.28
2036;BME280;23642;42.658;23.350;2023-02-13T10:38:24;52353.00;;;-146.31;77.06
2036;BME280;23642;42.658;23.350;2023-02-13T10:41:28;52274.59;;;-146.31;78.27
2036;BME280;23642;42.658;23.350;2023-02-13T10:48:00;52251.88;;;-146.31;78.89
2036;BME280;23642;42.658;23.350;2023-02-13T10:51:03;52198.22;;;-146.31;77.61
2036;BME280;23642;42.658;23.350;2023-02-13T10:54:03;52264.25;;;-146.31;76.27
2036;BME280;23642;42.658;23.350;2023-02-13T10:56:46;52309.66;;;-146.31;75.28
2036;BME280;23642;42.658;23.350;2023-02-13T10:59:59;52305.53;;;-146.31;75.55
2036;BME280;23642;42.658;23.350;2023-02-13T11:02:30;52330.28;;;-146.31;75.48
2036;BME280;23642;42.658;23.350;2023-02-13T11:05:14;52344.75;;;-146.31;74.67
2036;BME280;23642;42.658;23.350;2023-02-13T11:07:44;52369.50;;;-146.31;75.77
2036;BME280;23642;42.658;23.350;2023-02-13T11:11:28;52350.94;;;-146.31;75.63
2036;BME280;23642;42.658;23.350;2023-02-13T11:13:29;52319.97;;;-146.31;75.10
2036;BME280;23642;42.658;23.350;2023-02-13T11:16:01;52357.13;;;-146.31;74.56
2036;BME280;23642;42.658;23.350;2023-02-13T11:24:49;52416.97;;;-146.31;73.52
2036;BME280;23642;42.658;23.350;2023-02-13T11:28:18;52462.38;;;-146.31;72.50
2036;BME280;23642;42.658;23.350;2023-02-13T11:31:15;52509.81;;;-146.31;72.08
2036;BME280;23642;42.658;23.350;2023-02-13T11:34:17;52518.09;;;-146.31;71.90
2036;BME280;23642;42.658;23.350;2023-02-13T11:37:18;52557.28;;;-146.31;71.32
2036;BME280;23642;42.658;23.350;2023-02-13T11:40:30;52565.53;;;-146.31;70.63
2036;BME280;23642;42.658;23.350;2023-02-13T11:43:04;52637.78;;;-146.31;69.45
2036;BME280;23642;42.658;23.350;2023-02-13T11:46:02;52621.25;;;-146.31;70.13
2036;BME280;23642;42.658;23.350;2023-02-13T11:48:39;52613.00;;;-146.31;69.63
2036;BME280;23642;42.658;23.350;2023-02-13T11:51:44;52639.84;;;-146.31;69.35
2036;BME280;23642;42.658;23.350;2023-02-13T11:54:47;52666.66;;;-146.31;69.21
2036;BME280;23642;42.658;23.350;2023-02-13T11:58:02;52660.47;;;-146.31;69.90
2036;BME280;23642;42.658;23.350;2023-02-13T12:00:43;52674.94;;;-146.31;70.10
2036;BME280;23642;42.658;23.350;2023-02-13T12:04:19;52743.03;;;-146.31;68.52
2036;BME280;23642;42.658;23.350;2023-02-13T12:07:10;52817.31;;;-146.31;65.91
2036;BME280;23642;42.658;23.350;2023-02-13T12:13:26;52974.19;;;-146.31;63.78
2036;BME280;23642;42.658;23.350;2023-02-13T12:16:34;53050.56;;;-146.31;60.80
2036;BME280;23642;42.658;23.350;2023-02-13T12:19:32;53062.94;;;-146.31;59.95
2036;BME280;23642;42.658;23.350;2023-02-13T12:22:29;53075.31;;;-146.31;59.59
2036;BME280;23642;42.658;23.350;2023-02-13T12:25:26;53164.06;;;-146.31;59.50
2036;BME280;23642;42.658;23.350;2023-02-13T12:28:31;53176.44;;;-146.31;58.69
2036;BME280;23642;42.658;23.350;2023-02-13T12:31:23;53153.75;;;-146.31;58.44
2036;BME280;23642;42.658;23.350;2023-02-13T12:34:50;53199.16;;;-146.31;57.02
2036;BME280;23642;42.658;23.350;2023-02-13T12:37:30;53238.38;;;-146.31;57.18
2036;BME280;23642;42.658;23.350;2023-02-13T12:57:36;53587.22;;;-146.31;54.01
2036;BME280;23642;42.658;23.350;2023-02-13T13:00:38;53607.88;;;-146.31;53.22
2036;BME280;23642;42.658;23.350;2023-02-13T13:04:03;53609.94;;;-146.31;52.23
2036;BME280;23642;42.658;23.350;2023-02-13T13:06:59;53612.00;;;-146.31;52.76
2036;BME280;23642;42.658;23.350;2023-02-13T13:13:30;53636.78;;;-146.31;52.45
2036;BME280;23642;42.658;23.350;2023-02-13T13:16:42;53696.63;;;-146.31;52.58
2036;BME280;23642;42.658;23.350;2023-02-13T13:26:29;53787.47;;;-146.31;52.36
2036;BME280;23642;42.658;23.350;2023-02-13T13:29:18;53797.78;;;-146.31;52.61
2036;BME280;23642;42.658;23.350;2023-02-13T13:32:12;53750.31;;;-146.31;52.38
2036;BME280;23642;42.658;23.350;2023-02-13T13:34:59;53820.50;;;-146.31;51.98
2036;BME280;23642;42.658;23.350;2023-02-13T13:37:59;53818.44;;;-146.31;52.29
2036;BME280;23642;42.658;23.350;2023-02-13T13:41:37;53872.13;;;-146.31;52.78
2036;BME280;23642;42.658;23.350;2023-02-13T13:44:45;53857.66;;;-146.31;52.24
2036;BME280;23642;42.658;23.350;2023-02-13T13:52:04;53880.38;;;-146.31;52.68
2036;BME280;23642;42.658;23.350;2023-02-13T13:54:36;53880.38;;;-146.31;52.95
2036;BME280;23642;42.658;23.350;2023-02-13T14:01:01;53886.56;;;-146.31;52.48
2036;BME280;23642;42.658;23.350;2023-02-13T14:09:42;53907.22;;;-146.31;52.83
2036;BME280;23642;42.658;23.350;2023-02-13T14:16:38;53896.88;;;-146.31;52.36
2036;BME280;23642;42.658;23.350;2023-02-13T14:19:31;53915.47;;;-146.31;52.36
2036;BME280;23642;42.658;23.350;2023-02-13T14:22:31;53894.81;;;-146.31;53.07
2036;BME280;23642;42.658;23.350;2023-02-13T14:25:02;53950.56;;;-146.31;53.33
2036;BME280;23642;42.658;23.350;2023-02-13T14:27:38;53942.31;;;-146.31;53.47
2036;BME280;23642;42.658;23.350;2023-02-13T14:30:31;53913.41;;;-146.31;53.23
2036;BME280;23642;42.658;23.350;2023-02-13T14:33:26;53934.06;;;-146.31;53.03
2036;BME280;23642;42.658;23.350;2023-02-13T14:36:19;53956.75;;;-146.31;54.02
2036;BME280;23642;42.658;23.350;2023-02-13T14:39:02;53925.78;;;-146.31;54.28
2036;BME280;23642;42.658;23.350;2023-02-13T14:41:56;53934.06;;;-146.31;54.62
2036;BME280;23642;42.658;23.350;2023-02-13T14:44:41;53952.63;;;-146.31;55.18
2036;BME280;23642;42.658;23.350;2023-02-13T14:47:32;53946.44;;;-146.31;54.81
2036;BME280;23642;42.658;23.350;2023-02-13T14:50:23;53940.25;;;-146.31;54.47
2036;BME280;23642;42.658;23.350;2023-02-13T14:53:27;53936.13;;;-146.31;55.16
2036;BME280;23642;42.658;23.350;2023-02-13T14:55:52;53927.84;;;-146.31;54.85
2036;BME280;23642;42.658;23.350;2023-02-13T14:58:35;53965.03;;;-146.31;54.66
2036;BME280;23642;42.658;23.350;2023-02-13T15:01:12;53948.50;;;-146.31;54.76
2036;BME280;23642;42.658;23.350;2023-02-13T15:03:50;53948.50;;;-146.31;55.01
2036;BME280;23642;42.658;23.350;2023-02-13T15:06:40;53987.72;;;-146.31;55.51
2036;BME280;23642;42.658;23.350;2023-02-13T15:09:38;53950.56;;;-146.31;55.83
2036;BME280;23642;42.658;23.350;2023-02-13T15:12:29;53973.28;;;-146.31;55.97
2036;BME280;23642;42.658;23.350;2023-02-13T15:19:11;53977.41;;;-146.31;56.20
2036;BME280;23642;42.658;23.350;2023-02-13T15:22:26;53985.66;;;-146.31;56.85
2036;BME280;23642;42.658;23.350;2023-02-13T15:28:35;53993.91;;;-146.31;57.56
2036;BME280;23642;42.658;23.350;2023-02-13T15:31:18;53993.91;;;-146.31;57.44
2036;BME280;23642;42.658;23.350;2023-02-13T15:33:53;53977.41;;;-146.31;57.84
2036;BME280;23642;42.658;23.350;2023-02-13T15:36:25;53989.78;;;-146.31;58.27
2036;BME280;23642;42.658;23.350;2023-02-13T15:39:04;53977.41;;;-146.31;58.42
2036;BME280;23642;42.658;23.350;2023-02-13T15:41:52;54014.56;;;-146.31;58.65
2036;BME280;23642;42.658;23.350;2023-02-13T15:44:37;53993.91;;;-146.31;59.71
2036;BME280;23642;42.658;23.350;2023-02-13T15:47:25;53977.41;;;-146.31;58.98
2036;BME280;23642;42.658;23.350;2023-02-13T15:50:28;53977.41;;;-146.31;59.31
2036;BME280;23642;42.658;23.350;2023-02-13T15:53:18;53977.41;;;-146.31;59.63
2036;BME280;23642;42.658;23.350;2023-02-13T15:56:17;53950.56;;;-146.31;59.56
2036;BME280;23642;42.658;23.350;2023-02-13T15:58:57;54018.69;;;-146.31;60.38
2036;BME280;23642;42.658;23.350;2023-02-13T16:01:35;53985.66;;;-146.31;60.81
2036;BME280;23642;42.658;23.350;2023-02-13T16:04:15;54000.13;;;-146.31;61.33
2036;BME280;23642;42.658;23.350;2023-02-13T16:06:46;53983.59;;;-146.31;60.95
2036;BME280;23642;42.658;23.350;2023-02-13T16:09:25;53967.09;;;-146.31;60.99
2036;BME280;23642;42.658;23.350;2023-02-13T16:12:03;53975.34;;;-146.31;61.48
2036;BME280;23642;42.658;23.350;2023-02-13T16:14:48;53940.25;;;-146.31;61.66
2036;BME280;23642;42.658;23.350;2023-02-13T16:17:25;53965.03;;;-146.31;62.67
2036;BME280;23642;42.658;23.350;2023-02-13T16:20:15;53960.88;;;-146.31;63.12
2036;BME280;23642;42.658;23.350;2023-02-13T16:22:54;53962.94;;;-146.31;63.50
2036;BME280;23642;42.658;23.350;2023-02-13T16:25:25;53940.25;;;-146.31;63.60
2036;BME280;23642;42.658;23.350;2023-02-13T16:31:01;53925.78;;;-146.31;63.15
2036;BME280;23642;42.658;23.350;2023-02-13T16:33:31;53880.38;;;-146.31;63.80
2036;BME280;23642;42.658;23.350;2023-02-13T16:35:59;53913.41;;;-146.31;63.50
2036;BME280;23642;42.658;23.350;2023-02-13T16:38:46;53931.97;;;-146.31;64.19
2036;BME280;23642;42.658;23.350;2023-02-13T16:41:30;53907.22;;;-146.31;64.64
2036;BME280;23642;42.658;23.350;2023-02-13T16:44:02;53896.88;;;-146.31;64.73
2036;BME280;23642;42.658;23.350;2023-02-13T16:46:41;53870.06;;;-146.31;64.68
2036;BME280;23642;42.658;23.350;2023-02-13T16:49:19;53853.53;;;-146.31;64.72
2036;BME280;23642;42.658;23.350;2023-02-13T16:51:53;53855.59;;;-146.31;64.71
2036;BME280;23642;42.658;23.350;2023-02-13T16:54:28;53843.22;;;-146.31;64.85
2036;BME280;23642;42.658;23.350;2023-02-13T16:57:13;53834.94;;;-146.31;65.05
2036;BME280;23642;42.658;23.350;2023-02-13T16:59:54;53832.88;;;-146.31;65.31
2036;BME280;23642;42.658;23.350;2023-02-13T17:02:34;53841.16;;;-146.31;65.18
2036;BME280;23642;42.658;23.350;2023-02-13T17:05:26;53816.38;;;-146.31;64.99
2036;BME280;23642;42.658;23.350;2023-02-13T17:08:07;53828.75;;;-146.31;64.98
2036;BME280;23642;42.658;23.350;2023-02-13T17:10:38;53804.00;;;-146.31;65.60
2036;BME280;23642;42.658;23.350;2023-02-13T17:13:12;53816.38;;;-146.31;66.07
2036;BME280;23642;42.658;23.350;2023-02-13T17:15:47;53808.13;;;-146.31;65.94
2036;BME280;23642;42.658;23.350;2023-02-13T17:18:20;53837.03;;;-146.31;66.12
2036;BME280;23642;42.658;23.350;2023-02-13T17:20:47;53795.72;;;-146.31;66.33
2036;BME280;23642;42.658;23.350;2023-02-13T17:23:16;53795.72;;;-146.31;65.87
2036;BME280;23642;42.658;23.350;2023-02-13T17:25:52;53828.75;;;-146.31;66.50
2036;BME280;23642;42.658;23.350;2023-02-13T17:28:25;53804.00;;;-146.31;65.83
2036;BME280;23642;42.658;23.350;2023-02-13T17:31:11;53801.91;;;-146.31;65.92
2036;BME280;23642;42.658;23.350;2023-02-13T17:33:43;53804.00;;;-146.31;66.20
2036;BME280;23642;42.658;23.350;2023-02-13T17:36:21;53828.75;;;-146.31;66.13
2036;BME280;23642;42.658;23.350;2023-02-13T17:38:49;53806.06;;;-146.31;65.68
2036;BME280;23642;42.658;23.350;2023-02-13T17:41:16;53804.00;;;-146.31;66.35
2036;BME280;23642;42.658;23.350;2023-02-13T17:47:08;53777.16;;;-146.31;66.18
2036;BME280;23642;42.658;23.350;2023-02-13T17:49:39;53791.59;;;-146.31;65.98
2036;BME280;23642;42.658;23.350;2023-02-13T17:52:08;53789.53;;;-146.31;66.00
2036;BME280;23642;42.658;23.350;2023-02-13T17:54:37;53804.00;;;-146.31;66.01
2036;BME280;23642;42.658;23.350;2023-02-13T17:57:10;53804.00;;;-146.31;66.55
2036;BME280;23642;42.658;23.350;2023-02-13T17:59:45;53789.53;;;-146.31;65.93
2036;BME280;23642;42.658;23.350;2023-02-13T18:02:15;53799.84;;;-146.31;66.01
2036;BME280;23642;42.658;23.350;2023-02-13T18:04:44;53789.53;;;-146.31;65.58
2036;BME280;23642;42.658;23.350;2023-02-13T18:07:18;53797.78;;;-146.31;65.50
2036;BME280;23642;42.658;23.350;2023-02-13T18:09:52;53787.47;;;-146.31;65.94
2036;BME280;23642;42.658;23.350;2023-02-13T18:12:30;53783.34;;;-146.31;65.59
2036;BME280;23642;42.658;23.350;2023-02-13T18:15:00;53804.00;;;-146.31;65.85
2036;BME280;23642;42.658;23.350;2023-02-13T18:18:00;53804.00;;;-146.31;66.07
2036;BME280;23642;42.658;23.350;2023-02-13T18:20:43;53804.00;;;-146.31;65.81
2036;BME280;23642;42.658;23.350;2023-02-13T18:23:11;53814.31;;;-146.31;66.00
2036;BME280;23642;42.658;23.350;2023-02-13T18:25:41;53814.31;;;-146.31;66.38
2036;BME280;23642;42.658;23.350;2023-02-13T18:28:13;53820.50;;;-146.31;66.70
2036;BME280;23642;42.658;23.350;2023-02-13T18:30:47;53822.56;;;-146.31;66.98
2036;BME280;23642;42.658;23.350;2023-02-13T18:33:28;53791.59;;;-146.31;67.84
2036;BME280;23642;42.658;23.350;2023-02-13T18:36:04;53801.91;;;-146.31;66.24
2036;BME280;23642;42.658;23.350;2023-02-13T18:38:51;53812.25;;;-146.31;66.99
2036;BME280;23642;42.658;23.350;2023-02-13T18:41:35;53810.19;;;-146.31;67.15
2036;BME280;23642;42.658;23.350;2023-02-13T18:44:11;53775.09;;;-146.31;67.53
2036;BME280;23642;42.658;23.350;2023-02-13T18:46:42;53789.53;;;-146.31;66.92
2036;BME280;23642;42.658;23.350;2023-02-13T18:49:16;53806.06;;;-146.31;66.43
2036;BME280;23642;42.658;23.350;2023-02-13T18:51:53;53797.78;;;-146.31;66.08
2036;BME280;23642;42.658;23.350;2023-02-13T18:54:32;53795.72;;;-146.31;65.68
2036;BME280;23642;42.658;23.350;2023-02-13T18:57:03;53820.50;;;-146.31;65.22
2036;BME280;23642;42.658;23.350;2023-02-13T18:59:36;53791.59;;;-146.31;65.28
2036;BME280;23642;42.658;23.350;2023-02-13T19:02:17;53818.44;;;-146.31;65.74
2036;BME280;23642;42.658;23.350;2023-02-13T19:04:55;53787.47;;;-146.31;65.28
2036;BME280;23642;42.658;23.350;2023-02-13T19:07:34;53812.25;;;-146.31;64.71
2036;BME280;23642;42.658;23.350;2023-02-13T19:10:11;53828.75;;;-146.31;64.91
2036;BME280;23642;42.658;23.350;2023-02-13T19:13:01;53834.94;;;-146.31;65.04
2036;BME280;23642;42.658;23.350;2023-02-13T19:15:42;53828.75;;;-146.31;63.83
2036;BME280;23642;42.658;23.350;2023-02-13T19:18:15;53820.50;;;-146.31;63.68
2036;BME280;23642;42.658;23.350;2023-02-13T19:21:02;53824.63;;;-146.31;63.78
2036;BME280;23642;42.658;23.350;2023-02-13T19:24:00;53837.03;;;-146.31;63.81
2036;BME280;23642;42.658;23.350;2023-02-13T19:26:34;53841.16;;;-146.31;63.17
2036;BME280;23642;42.658;23.350;2023-02-13T19:29:04;53849.41;;;-146.31;62.99
2036;BME280;23642;42.658;23.350;2023-02-13T19:31:53;53874.19;;;-146.31;63.07
2036;BME280;23642;42.658;23.350;2023-02-13T19:34:32;53882.44;;;-146.31;62.28
2036;BME280;23642;42.658;23.350;2023-02-13T19:37:04;53878.31;;;-146.31;63.04
2036;BME280;23642;42.658;23.350;2023-02-13T19:40:05;53886.56;;;-146.31;62.68
2036;BME280;23642;42.658;23.350;2023-02-13T19:43:00;53913.41;;;-146.31;62.18
2036;BME280;23642;42.658;23.350;2023-02-13T19:45:32;53865.91;;;-146.31;62.22
2036;BME280;23642;42.658;23.350;2023-02-13T19:48:06;53901.03;;;-146.31;61.87
2036;BME280;23642;42.658;23.350;2023-02-13T19:50:50;53876.25;;;-146.31;61.95
2036;BME280;23642;42.658;23.350;2023-02-13T19:53:25;53890.69;;;-146.31;62.33
2036;BME280;23642;42.658;23.350;2023-02-13T19:56:10;53886.56;;;-146.31;61.66
2036;BME280;23642;42.658;23.350;2023-02-13T19:58:47;53888.63;;;-146.31;61.71
2036;BME280;23642;42.658;23.350;2023-02-13T20:01:33;53907.22;;;-146.31;61.55
2036;BME280;23642;42.658;23.350;2023-02-13T20:04:09;53905.16;;;-146.31;62.16
2036;BME280;23642;42.658;23.350;2023-02-13T20:06:49;53898.94;;;-146.31;62.09
2036;BME280;23642;42.658;23.350;2023-02-13T20:09:22;53911.34;;;-146.31;61.68
2036;BME280;23642;42.658;23.350;2023-02-13T20:12:07;53907.22;;;-146.31;61.73
2036;BME280;23642;42.658;23.350;2023-02-13T20:14:41;53936.13;;;-146.31;61.21
2036;BME280;23642;42.658;23.350;2023-02-13T20:17:25;53923.72;;;-146.31;61.46